Time;durP1;ratioP1;P1;durP2;ratioP2;P2;SDS_P1;SDS_P2;PMS_P1;PMS_P2;Temp;Humidity;BMP_temperature;BMP_pressure;BME280_temperature;BME280_humidity;BME280_pressure;Samples;Min_cycle;Max_cycle;Signal;HPM_P1;HPM_P2
2022/07/02 00:00:58;;;;;;;9.50;3.60;;;;;;;;;;5023694;28;20387;-73
2022/07/02 00:03:27;;;;;;;10.90;3.88;;;;;;;;;;5029697;28;20045;-74
2022/07/02 00:05:56;;;;;;;9.35;3.50;;;;;;;;;;5026841;28;20053;-72
2022/07/02 00:08:27;;;;;;;11.18;3.55;;;;;;;;;;5030219;28;20049;-75
2022/07/02 00:10:53;;;;;;;10.05;3.80;;;;;;;;;;5031672;28;20049;-73
2022/07/02 00:13:21;;;;;;;12.50;4.43;;;;;;;;;;5029531;28;20111;-74
2022/07/02 00:15:47;;;;;;;14.90;4.30;;;;;;;;;;5028727;28;20049;-72
2022/07/02 00:18:13;;;;;;;;;;;;;;;;;;5031119;28;20465;-73
2022/07/02 00:20:39;;;;;;;15.30;3.85;;;;;;;;;;5028633;28;20024;-73
2022/07/02 00:23:05;;;;;;;11.57;4.10;;;;;;;;;;5026711;28;20057;-73
2022/07/02 00:25:31;;;;;;;;;;;;;;;;;;5027855;28;20117;-75
2022/07/02 00:27:57;;;;;;;12.60;4.28;;;;;;;;;;5044357;28;20025;-74
2022/07/02 00:30:24;;;;;;;14.90;4.70;;;;;;;;;;5028270;28;20050;-73
2022/07/02 00:32:50;;;;;;;13.90;4.00;;;;;;;;;;5025447;28;20051;-73
2022/07/02 00:35:16;;;;;;;10.90;4.20;;;;;;;;;;5029095;28;20127;-73
2022/07/02 00:37:42;;;;;;;;;;;;;;;;;;5010049;28;20171;-73
2022/07/02 00:40:09;;;;;;;12.57;4.05;;;;;;;;;;5029328;28;19921;-74
2022/07/02 00:42:36;;;;;;;10.98;4.03;;;;;;;;;;5021558;28;20041;-73
2022/07/02 00:45:02;;;;;;;12.68;4.47;;;;;;;;;;5027788;28;20053;-74
2022/07/02 00:47:30;;;;;;;11.40;4.38;;;;;;;;;;5027160;28;20147;-73
2022/07/02 00:49:56;;;;;;;12.50;5.03;;;;;;;;;;5029515;28;20045;-72
2022/07/02 00:52:22;;;;;;;13.15;4.88;;;;;;;;;;5026464;28;20124;-74
2022/07/02 00:54:48;;;;;;;12.98;4.97;;;;;;;;;;5028143;28;20431;-74
2022/07/02 00:57:15;;;;;;;13.93;5.13;;;;;;;;;;5027938;28;20041;-75
2022/07/02 00:59:41;;;;;;;11.10;4.90;;;;;;;;;;5028183;28;20046;-74
2022/07/02 01:02:07;;;;;;;16.08;4.90;;;;;;;;;;5025209;28;20093;-74
2022/07/02 01:04:34;;;;;;;10.57;4.78;;;;;;;;;;5027163;28;20120;-74
2022/07/02 01:07:03;;;;;;;12.30;5.63;;;;;;;;;;5009990;28;20187;-75
2022/07/02 01:12:18;;;;;;;11.27;4.97;;;;;;;;;;5026881;28;20472;-73
2022/07/02 01:14:46;;;;;;;11.82;4.80;;;;;;;;;;5027863;28;20061;-73
2022/07/02 01:17:12;;;;;;;13.40;5.50;;;;;;;;;;5023872;28;20054;-74
2022/07/02 01:19:39;;;;;;;22.52;5.47;;;;;;;;;;5028267;28;20049;-72
2022/07/02 01:22:12;;;;;;;13.27;4.88;;;;;;;;;;5026762;28;20057;-73
2022/07/02 01:24:39;;;;;;;14.10;5.15;;;;;;;;;;5026602;28;20041;-74
2022/07/02 01:27:05;;;;;;;;;;;;;;;;;;5028475;28;20295;-73
2022/07/02 01:29:31;;;;;;;12.27;4.63;;;;;;;;;;5026380;28;20291;-72
2022/07/02 01:31:57;;;;;;;14.27;5.18;;;;;;;;;;5026948;28;20045;-73
2022/07/02 01:34:23;;;;;;;12.70;5.22;;;;;;;;;;5015809;28;20091;-74
2022/07/02 01:36:49;;;;;;;11.45;5.05;;;;;;;;;;5021284;28;20058;-74
2022/07/02 01:39:15;;;;;;;15.05;5.10;;;;;;;;;;5026377;28;20063;-73
2022/07/02 01:41:42;;;;;;;12.77;5.25;;;;;;;;;;5018978;28;20069;-74
2022/07/02 01:44:07;;;;;;;;;;;;;;;;;;5024838;28;20344;-72
2022/07/02 01:46:34;;;;;;;14.20;4.85;;;;;;;;;;5029273;28;20577;-72
2022/07/02 01:49:00;;;;;;;14.02;5.13;;;;;;;;;;5026518;28;20125;-76
2022/07/02 01:51:39;;;;;;;15.37;5.80;;;;;;;;;;5132362;27;1266696;-72
2022/07/02 01:54:07;;;;;;;15.07;5.43;;;;;;;;;;5146591;27;20230;-72
2022/07/02 01:56:36;;;;;;;12.00;5.05;;;;;;;;;;5168310;27;20357;-70
2022/07/02 01:59:02;;;;;;;15.73;5.38;;;;;;;;;;5163170;27;20564;-70
2022/07/02 02:01:28;;;;;;;;;;;;;;;;;;5160545;27;20114;-71
2022/07/02 02:03:54;;;;;;;14.07;5.15;;;;;;;;;;5164680;27;19915;-70
2022/07/02 02:06:20;;;;;;;15.30;5.60;;;;;;;;;;5163946;27;20113;-72
2022/07/02 02:08:46;;;;;;;14.77;5.40;;;;;;;;;;5156517;27;20038;-71
2022/07/02 02:11:12;;;;;;;12.13;5.07;;;;;;;;;;5160212;27;20594;-72
2022/07/02 02:13:39;;;;;;;14.05;5.07;;;;;;;;;;5166969;27;20045;-72
2022/07/02 02:16:05;;;;;;;12.55;5.10;;;;;;;;;;5165467;27;20046;-71
2022/07/02 02:18:31;;;;;;;14.65;5.15;;;;;;;;;;5164749;27;20438;-72
2022/07/02 02:20:57;;;;;;;;;;;;;;;;;;5157719;27;20031;-71
2022/07/02 02:23:24;;;;;;;11.15;4.90;;;;;;;;;;5137131;27;19934;-71
2022/07/02 02:25:50;;;;;;;16.63;5.75;;;;;;;;;;5158530;27;20477;-71
2022/07/02 02:28:16;;;;;;;12.00;5.28;;;;;;;;;;5160717;27;20456;-71
2022/07/02 02:30:42;;;;;;;12.57;5.20;;;;;;;;;;5165527;27;20217;-72
2022/07/02 02:33:08;;;;;;;11.55;5.00;;;;;;;;;;5163973;27;20041;-71
2022/07/02 02:35:34;;;;;;;16.95;5.38;;;;;;;;;;5165094;27;20038;-71
2022/07/02 02:38:00;;;;;;;14.68;5.20;;;;;;;;;;5130424;27;20102;-72
2022/07/02 02:40:27;;;;;;;11.80;5.40;;;;;;;;;;5165677;27;20114;-73
2022/07/02 02:42:53;;;;;;;17.05;5.53;;;;;;;;;;5164365;27;20138;-73
2022/07/02 02:45:19;;;;;;;11.77;5.47;;;;;;;;;;5165768;27;20145;-71
2022/07/02 02:47:45;;;;;;;13.07;5.35;;;;;;;;;;5166795;27;20066;-70
2022/07/02 02:50:11;;;;;;;16.67;5.70;;;;;;;;;;5165224;27;20172;-73
2022/07/02 02:52:37;;;;;;;12.05;5.00;;;;;;;;;;5165979;27;20130;-71
2022/07/02 02:55:03;;;;;;;14.65;5.20;;;;;;;;;;5165150;27;20067;-72
2022/07/02 02:57:29;;;;;;;15.50;5.30;;;;;;;;;;5163753;27;20389;-71
2022/07/02 02:59:56;;;;;;;15.00;5.32;;;;;;;;;;5161822;27;20388;-71
2022/07/02 03:02:22;;;;;;;14.15;5.82;;;;;;;;;;5154559;27;20074;-73
2022/07/02 03:04:48;;;;;;;15.82;5.68;;;;;;;;;;5149242;27;20034;-72
2022/07/02 03:07:14;;;;;;;12.95;5.70;;;;;;;;;;5149525;27;20047;-71
2022/07/02 03:09:40;;;;;;;15.07;5.65;;;;;;;;;;5122251;27;20043;-71
2022/07/02 03:12:06;;;;;;;13.57;5.30;;;;;;;;;;5148384;27;20042;-71
2022/07/02 03:14:32;;;;;;;15.10;5.70;;;;;;;;;;5148001;27;20042;-71
2022/07/02 03:16:58;;;;;;;16.63;5.40;;;;;;;;;;5142479;27;20401;-71
2022/07/02 03:19:25;;;;;;;14.35;5.45;;;;;;;;;;5126065;27;20211;-70
2022/07/02 03:21:51;;;;;;;17.05;5.38;;;;;;;;;;5146297;27;20042;-72
2022/07/02 03:24:17;;;;;;;15.60;5.43;;;;;;;;;;5146227;27;20079;-70
2022/07/02 03:26:43;;;;;;;17.00;5.40;;;;;;;;;;5142434;27;20122;-70
2022/07/02 03:29:09;;;;;;;15.55;6.15;;;;;;;;;;5138251;27;20034;-71
2022/07/02 03:31:35;;;;;;;16.08;5.60;;;;;;;;;;5131755;27;20097;-71
2022/07/02 03:34:01;;;;;;;14.55;6.03;;;;;;;;;;5142683;27;20103;-72
2022/07/02 03:36:27;;;;;;;;;;;;;;;;;;5144865;27;20170;-71
2022/07/02 03:38:53;;;;;;;15.23;5.88;;;;;;;;;;5148785;27;20404;-73
2022/07/02 03:41:19;;;;;;;15.38;6.10;;;;;;;;;;5147405;27;20030;-71
2022/07/02 03:43:45;;;;;;;17.05;6.43;;;;;;;;;;5150048;27;20191;-72
2022/07/02 03:46:12;;;;;;;16.00;6.15;;;;;;;;;;5138432;27;20067;-74
2022/07/02 03:48:38;;;;;;;13.32;5.88;;;;;;;;;;5148358;27;20142;-71
2022/07/02 03:51:05;;;;;;;15.27;5.43;;;;;;;;;;5142958;27;20046;-75
2022/07/02 03:53:31;;;;;;;13.75;5.57;;;;;;;;;;5148320;27;20070;-76
2022/07/02 03:55:57;;;;;;;17.15;6.53;;;;;;;;;;5141244;27;20062;-71
2022/07/02 03:58:23;;;;;;;14.32;5.32;;;;;;;;;;5138143;27;20366;-73
2022/07/02 04:00:49;;;;;;;16.85;6.40;;;;;;;;;;5144595;27;20474;-73
2022/07/02 04:03:15;;;;;;;15.20;6.70;;;;;;;;;;5134891;27;20043;-72
2022/07/02 04:05:41;;;;;;;15.52;5.57;;;;;;;;;;5145823;27;20058;-78
2022/07/02 04:08:07;;;;;;;16.23;6.35;;;;;;;;;;5148093;27;20035;-73
2022/07/02 04:10:33;;;;;;;14.38;6.03;;;;;;;;;;5148122;27;20110;-75
2022/07/02 04:12:59;;;;;;;18.00;6.50;;;;;;;;;;5139961;27;20091;-69
2022/07/02 04:15:25;;;;;;;17.80;7.22;;;;;;;;;;5145760;27;20046;-71
2022/07/02 04:17:51;;;;;;;17.80;6.38;;;;;;;;;;5129741;27;20082;-74
2022/07/02 04:20:17;;;;;;;16.08;6.18;;;;;;;;;;5142447;27;20027;-73
2022/07/02 04:22:44;;;;;;;14.52;6.20;;;;;;;;;;5128968;27;20035;-77
2022/07/02 04:25:10;;;;;;;15.30;6.53;;;;;;;;;;5146194;27;20117;-76
2022/07/02 04:27:36;;;;;;;14.27;6.55;;;;;;;;;;5146278;27;20039;-77
2022/07/02 04:30:02;;;;;;;16.77;6.53;;;;;;;;;;5145710;27;20129;-75
2022/07/02 04:32:28;;;;;;;;;;;;;;;;;;5146952;27;20038;-74
2022/07/02 04:34:54;;;;;;;18.08;6.00;;;;;;;;;;5147110;27;19946;-75
2022/07/02 04:37:20;;;;;;;15.40;6.88;;;;;;;;;;5146377;27;20198;-74
2022/07/02 04:39:46;;;;;;;12.82;6.22;;;;;;;;;;5145167;27;20038;-74
2022/07/02 04:42:12;;;;;;;15.52;6.80;;;;;;;;;;5149331;27;20162;-75
2022/07/02 04:44:38;;;;;;;14.52;6.72;;;;;;;;;;5146734;27;20111;-73
2022/07/02 04:47:05;;;;;;;15.75;7.38;;;;;;;;;;5142327;27;20038;-72
2022/07/02 04:49:34;;;;;;;19.30;7.57;;;;;;;;;;5140577;27;20107;-79
2022/07/02 04:52:00;;;;;;;15.98;7.28;;;;;;;;;;5142128;27;20474;-71
2022/07/02 04:54:26;;;;;;;17.35;6.88;;;;;;;;;;5146674;27;20050;-75
2022/07/02 04:56:52;;;;;;;15.38;7.85;;;;;;;;;;5142988;27;20169;-73
2022/07/02 04:59:18;;;;;;;18.50;7.85;;;;;;;;;;5146226;27;20039;-73
2022/07/02 05:01:45;;;;;;;22.77;7.70;;;;;;;;;;5143214;27;20039;-74
2022/07/02 05:04:11;;;;;;;16.85;7.95;;;;;;;;;;5148972;27;20280;-69
2022/07/02 05:06:37;;;;;;;17.23;8.70;;;;;;;;;;5142384;27;20042;-72
2022/07/02 05:09:03;;;;;;;17.30;8.60;;;;;;;;;;5148536;27;20034;-73
2022/07/02 05:11:29;;;;;;;18.55;9.50;;;;;;;;;;5142973;27;20098;-73
2022/07/02 05:13:55;;;;;;;;;;;;;;;;;;5148686;27;20039;-70
2022/07/02 05:16:22;;;;;;;19.85;10.10;;;;;;;;;;5124706;27;19915;-71
2022/07/02 05:18:48;;;;;;;15.80;9.75;;;;;;;;;;5147369;27;20215;-71
2022/07/02 05:21:14;;;;;;;15.60;9.82;;;;;;;;;;5143643;27;20058;-72
2022/07/02 05:23:40;;;;;;;;;;;;;;;;;;5148979;27;20043;-73
2022/07/02 05:26:06;;;;;;;17.58;10.32;;;;;;;;;;5141802;27;19923;-72
2022/07/02 05:28:32;;;;;;;18.02;9.93;;;;;;;;;;5148139;27;20414;-71
2022/07/02 05:30:58;;;;;;;17.58;9.75;;;;;;;;;;5143277;27;20035;-76
2022/07/02 05:33:24;;;;;;;16.63;9.82;;;;;;;;;;5141637;27;20037;-71
2022/07/02 05:35:51;;;;;;;21.95;10.32;;;;;;;;;;5146361;27;20042;-69
2022/07/02 05:38:18;;;;;;;16.67;9.23;;;;;;;;;;5145776;27;20474;-71
2022/07/02 05:40:44;;;;;;;;;;;;;;;;;;5139669;27;20039;-71
2022/07/02 05:43:10;;;;;;;16.88;9.88;;;;;;;;;;5119735;27;19915;-77
2022/07/02 05:45:36;;;;;;;19.25;10.07;;;;;;;;;;5139782;27;20058;-75
2022/07/02 05:48:02;;;;;;;17.30;8.88;;;;;;;;;;5142229;27;20336;-74
2022/07/02 05:50:28;;;;;;;19.65;10.10;;;;;;;;;;5142800;27;20130;-76
2022/07/02 05:52:54;;;;;;;18.13;9.05;;;;;;;;;;5144424;27;20051;-74
2022/07/02 05:55:20;;;;;;;16.48;8.30;;;;;;;;;;5144443;27;20038;-76
2022/07/02 05:57:46;;;;;;;14.63;8.45;;;;;;;;;;5142893;27;20046;-75
2022/07/02 06:00:13;;;;;;;19.60;8.18;;;;;;;;;;5120705;27;20042;-76
2022/07/02 06:02:39;;;;;;;15.68;8.05;;;;;;;;;;5145096;27;20094;-77
2022/07/02 06:07:50;;;;;;;13.43;7.40;;;;;;;;;;5145876;27;19998;-77
2022/07/02 06:10:19;;;;;;;14.88;7.32;;;;;;;;;;5125017;27;20121;-77
2022/07/02 06:12:49;;;;;;;16.52;7.00;;;;;;;;;;5145176;27;20103;-76
2022/07/02 06:15:15;;;;;;;18.92;8.02;;;;;;;;;;5127606;27;20509;-78
2022/07/02 06:17:41;;;;;;;15.55;6.65;;;;;;;;;;5125279;27;20114;-74
2022/07/02 06:20:08;;;;;;;12.38;6.65;;;;;;;;;;5145805;27;20061;-75
2022/07/02 06:22:34;;;;;;;13.77;6.45;;;;;;;;;;5139954;27;20157;-80
2022/07/02 06:25:00;;;;;;;17.77;7.35;;;;;;;;;;5136723;27;20083;-76
2022/07/02 06:27:26;;;;;;;16.80;6.78;;;;;;;;;;5142192;27;20046;-78
2022/07/02 06:29:53;;;;;;;15.27;6.43;;;;;;;;;;5141035;27;20043;-80
2022/07/02 06:32:19;;;;;;;13.98;5.75;;;;;;;;;;5142571;27;20327;-81
2022/07/02 06:34:45;;;;;;;;;;;;;;;;;;5142287;27;20041;-74
2022/07/02 06:37:11;;;;;;;14.52;5.85;;;;;;;;;;5147360;27;19915;-71
2022/07/02 06:39:37;;;;;;;15.80;6.30;;;;;;;;;;5133178;27;20043;-71
2022/07/02 06:42:19;;;;;;;14.85;5.72;;;;;;;;;;5147673;27;20344;-72
2022/07/02 06:44:46;;;;;;;13.95;5.78;;;;;;;;;;5146993;27;20043;-80
2022/07/02 06:47:12;;;;;;;13.48;5.78;;;;;;;;;;5149970;27;20122;-77
2022/07/02 06:49:39;;;;;;;14.45;5.50;;;;;;;;;;5141470;27;20038;-76
2022/07/02 06:52:05;;;;;;;;;;;;;;;;;;5152694;27;20126;-81
2022/07/02 06:54:31;;;;;;;15.95;5.60;;;;;;;;;;5149718;27;21400;-76
2022/07/02 06:56:57;;;;;;;25.98;5.65;;;;;;;;;;5150161;27;20031;-82
2022/07/02 06:59:23;;;;;;;15.27;5.13;;;;;;;;;;5149472;27;20046;-84
2022/07/02 07:01:49;;;;;;;14.30;4.88;;;;;;;;;;5114286;27;20065;-68
2022/07/02 07:04:15;;;;;;;12.02;4.88;;;;;;;;;;5118738;27;20124;-72
2022/07/02 07:06:47;;;;;;;13.68;4.68;;;;;;;;;;5147225;27;20050;-69
2022/07/02 07:09:13;;;;;;;13.63;5.40;;;;;;;;;;5126279;27;20046;-70
2022/07/02 07:11:39;;;;;;;12.57;4.38;;;;;;;;;;5136521;27;20090;-78
2022/07/02 07:14:05;;;;;;;8.85;3.85;;;;;;;;;;5143408;27;20050;-73
2022/07/02 07:16:31;;;;;;;;;;;;;;;;;;5114987;27;20047;-71
2022/07/02 07:21:26;;;;;;;14.75;4.82;;;;;;;;;;5146781;27;20051;-73
2022/07/02 07:23:53;;;;;;;14.48;4.45;;;;;;;;;;5143984;27;20070;-72
2022/07/02 07:26:19;;;;;;;;;;;;;;;;;;5142917;27;20779;-77
2022/07/02 07:28:45;;;;;;;11.48;4.30;;;;;;;;;;5119700;27;19943;-74
2022/07/02 07:31:11;;;;;;;11.68;3.95;;;;;;;;;;5150317;27;20051;-81
2022/07/02 07:33:37;;;;;;;11.48;3.97;;;;;;;;;;5149282;27;20184;-74
2022/07/02 07:36:04;;;;;;;10.52;3.40;;;;;;;;;;5145353;27;20043;-76
2022/07/02 07:38:30;;;;;;;13.82;3.55;;;;;;;;;;5138622;27;20034;-74
2022/07/02 07:40:56;;;;;;;13.15;3.63;;;;;;;;;;5136100;27;20114;-74
2022/07/02 07:43:22;;;;;;;11.75;3.80;;;;;;;;;;5147759;27;20091;-75
2022/07/02 07:45:48;;;;;;;11.30;3.55;;;;;;;;;;5143718;27;20488;-77
2022/07/02 07:48:14;;;;;;;13.50;3.53;;;;;;;;;;5141158;27;20351;-76
2022/07/02 07:50:40;;;;;;;;;;;;;;;;;;5144777;27;20103;-75
2022/07/02 07:53:06;;;;;;;12.23;3.00;;;;;;;;;;5130448;27;19941;-78
2022/07/02 07:55:32;;;;;;;;;;;;;;;;;;5148377;27;20043;-76
2022/07/02 07:57:58;;;;;;;9.90;3.10;;;;;;;;;;5148888;27;20021;-78
2022/07/02 08:00:24;;;;;;;11.68;3.15;;;;;;;;;;5144028;27;20546;-80
2022/07/02 08:02:50;;;;;;;11.95;3.33;;;;;;;;;;5115691;27;20042;-74
2022/07/02 08:05:17;;;;;;;10.73;3.53;;;;;;;;;;5137129;27;20047;-76
2022/07/02 08:07:43;;;;;;;11.82;3.25;;;;;;;;;;5146285;27;20500;-75
2022/07/02 08:10:12;;;;;;;9.25;3.03;;;;;;;;;;5149536;27;20513;-77
2022/07/02 08:12:42;;;;;;;10.38;3.03;;;;;;;;;;5150306;27;20445;-73
2022/07/02 08:15:08;;;;;;;13.40;3.03;;;;;;;;;;5148149;27;20042;-72
2022/07/02 08:17:35;;;;;;;11.00;3.10;;;;;;;;;;5147925;27;20047;-71
2022/07/02 08:20:05;;;;;;;12.68;3.20;;;;;;;;;;5126547;27;20101;-74
2022/07/02 08:22:35;;;;;;;11.88;3.00;;;;;;;;;;5146818;27;20386;-70
2022/07/02 08:25:01;;;;;;;9.82;3.00;;;;;;;;;;5147097;27;20198;-71
2022/07/02 08:27:27;;;;;;;8.85;2.50;;;;;;;;;;5148744;27;20047;-71
2022/07/02 08:29:53;;;;;;;10.40;2.72;;;;;;;;;;5149131;27;20050;-74
2022/07/02 08:32:19;;;;;;;9.02;2.70;;;;;;;;;;5145421;27;20035;-75
2022/07/02 08:34:45;;;;;;;8.88;2.95;;;;;;;;;;5147849;27;20046;-74
2022/07/02 08:37:11;;;;;;;8.60;2.40;;;;;;;;;;5142721;27;20046;-77
2022/07/02 08:39:38;;;;;;;;;;;;;;;;;;5139468;27;20039;-75
2022/07/02 08:42:05;;;;;;;10.50;2.40;;;;;;;;;;5138750;27;19922;-76
2022/07/02 08:44:32;;;;;;;10.65;2.63;;;;;;;;;;5129687;27;20482;-74
2022/07/02 08:46:59;;;;;;;10.52;2.20;;;;;;;;;;5130405;27;20063;-74
2022/07/02 08:49:26;;;;;;;7.30;2.25;;;;;;;;;;5126266;27;20126;-75
2022/07/02 08:54:18;;;;;;;5.82;2.13;;;;;;;;;;5133033;27;20098;-74
2022/07/02 08:56:44;;;;;;;9.57;2.10;;;;;;;;;;5102755;27;20081;-74
2022/07/02 08:59:11;;;;;;;8.00;2.17;;;;;;;;;;5138291;27;20143;-75
2022/07/02 09:01:37;;;;;;;8.32;2.20;;;;;;;;;;5131008;27;20039;-73
2022/07/02 09:04:03;;;;;;;6.57;2.00;;;;;;;;;;5135875;27;20343;-74
2022/07/02 09:06:31;;;;;;;8.30;2.08;;;;;;;;;;5136398;27;20411;-74
2022/07/02 09:08:58;;;;;;;8.43;2.10;;;;;;;;;;5138375;27;20101;-75
2022/07/02 09:11:25;;;;;;;7.45;2.08;;;;;;;;;;5137702;27;20139;-76
2022/07/02 09:13:52;;;;;;;5.78;2.08;;;;;;;;;;5141178;27;20560;-79
2022/07/02 09:16:18;;;;;;;9.25;2.30;;;;;;;;;;5138000;27;20035;-77
2022/07/02 09:18:44;;;;;;;6.10;1.90;;;;;;;;;;5144317;27;20388;-78
2022/07/02 09:21:10;;;;;;;7.35;1.88;;;;;;;;;;5144130;27;20334;-80
2022/07/02 09:23:45;;;;;;;6.20;1.80;;;;;;;;;;5144049;27;20054;-75
2022/07/02 09:26:18;;;;;;;4.22;1.70;;;;;;;;;;5147487;27;20117;-74
2022/07/02 09:28:52;;;;;;;8.23;1.73;;;;;;;;;;5134222;27;20047;-75
2022/07/02 09:31:18;;;;;;;7.45;1.83;;;;;;;;;;5127937;27;20074;-76
2022/07/02 09:33:44;;;;;;;7.65;1.95;;;;;;;;;;5135869;27;20035;-80
2022/07/02 09:36:10;;;;;;;;;;;;;;;;;;5131400;27;20191;-77
2022/07/02 09:38:43;;;;;;;6.07;1.50;;;;;;;;;;5140242;27;19997;-73
2022/07/02 09:41:14;;;;;;;5.28;1.73;;;;;;;;;;5131649;27;20054;-78
2022/07/02 09:43:40;;;;;;;9.00;2.00;;;;;;;;;;5136343;27;20058;-76
2022/07/02 09:46:06;;;;;;;;;;;;;;;;;;5140167;27;20434;-77
2022/07/02 09:48:32;;;;;;;6.55;1.73;;;;;;;;;;5134702;27;19935;-77
2022/07/02 09:51:03;;;;;;;6.25;1.75;;;;;;;;;;5140217;27;20490;-74
2022/07/02 09:53:29;;;;;;;6.40;1.75;;;;;;;;;;5137736;27;20095;-75
2022/07/02 09:55:55;;;;;;;;;;;;;;;;;;5144159;27;20137;-75
2022/07/02 09:58:25;;;;;;;6.68;1.75;;;;;;;;;;5135238;27;20290;-79
2022/07/02 10:00:51;;;;;;;10.43;1.95;;;;;;;;;;5118042;27;20043;-77
2022/07/02 10:03:17;;;;;;;4.75;1.65;;;;;;;;;;5136460;27;20034;-73
2022/07/02 10:05:43;;;;;;;;;;;;;;;;;;5132267;27;20034;-71
2022/07/02 10:08:10;;;;;;;7.38;1.88;;;;;;;;;;5148066;27;20325;-89
2022/07/02 10:10:40;;;;;;;7.53;1.80;;;;;;;;;;5130715;27;20083;-86
2022/07/02 10:13:06;;;;;;;6.97;1.63;;;;;;;;;;5133722;27;20122;-71
2022/07/02 10:15:34;;;;;;;7.45;1.92;;;;;;;;;;5148730;27;20046;-76
2022/07/02 10:18:03;;;;;;;9.00;2.00;;;;;;;;;;5153457;27;20042;-74
2022/07/02 10:20:30;;;;;;;5.00;1.70;;;;;;;;;;5153190;27;20074;-72
2022/07/02 10:23:00;;;;;;;5.65;1.80;;;;;;;;;;5152689;27;20098;-73
2022/07/02 10:25:26;;;;;;;6.72;2.00;;;;;;;;;;5149798;27;20026;-75
2022/07/02 10:27:55;;;;;;;9.23;1.90;;;;;;;;;;5132158;27;20110;-81
2022/07/02 10:30:21;;;;;;;5.90;1.77;;;;;;;;;;5153098;27;20039;-73
2022/07/02 10:32:58;;;;;;;5.65;1.70;;;;;;;;;;5153551;27;20444;-74
2022/07/02 10:35:24;;;;;;;9.55;2.05;;;;;;;;;;5153240;27;20038;-73
2022/07/02 10:37:50;;;;;;;;;;;;;;;;;;5134112;27;20142;-72
2022/07/02 10:40:18;;;;;;;5.05;1.55;;;;;;;;;;5152782;27;19923;-76
2022/07/02 10:42:48;;;;;;;6.68;1.60;;;;;;;;;;5153095;27;20537;-76
2022/07/02 10:45:23;;;;;;;6.05;1.60;;;;;;;;;;5136253;27;20435;-76
2022/07/02 10:48:04;;;;;;;5.13;1.60;;;;;;;;;;5134469;27;20043;-67
2022/07/02 10:50:37;;;;;;;7.15;1.75;;;;;;;;;;5152815;27;20114;-73
2022/07/02 10:53:12;;;;;;;4.82;1.52;;;;;;;;;;5152632;27;20043;-68
2022/07/02 10:55:39;;;;;;;8.15;2.10;;;;;;;;;;5151152;27;20042;-80
2022/07/02 10:58:07;;;;;;;5.40;1.55;;;;;;;;;;5152636;27;20042;-69
2022/07/02 11:00:34;;;;;;;6.35;1.63;;;;;;;;;;5153258;27;20069;-72
2022/07/02 11:03:14;;;;;;;5.25;1.55;;;;;;;;;;5150882;27;20046;-72
2022/07/02 11:05:56;;;;;;;6.20;1.70;;;;;;;;;;5135652;27;20466;-73
2022/07/02 11:08:48;;;;;;;3.60;1.52;;;;;;;;;;5152697;27;20057;-75
2022/07/02 11:11:18;;;;;;;5.00;1.90;;;;;;;;;;5141148;27;20053;-75
2022/07/02 11:13:45;;;;;;;7.70;2.10;;;;;;;;;;5150580;27;20495;-70
2022/07/02 11:16:10;;;;;;;;;;;;;;;;;;5153015;27;20041;-70
2022/07/02 11:18:41;;;;;;;7.38;1.55;;;;;;;;;;5117395;27;20005;-70
2022/07/02 11:21:07;;;;;;;6.40;1.60;;;;;;;;;;5152499;27;20458;-71
2022/07/02 11:23:34;;;;;;;7.20;2.05;;;;;;;;;;5150008;27;20119;-73
2022/07/02 11:26:00;;;;;;;6.35;1.60;;;;;;;;;;5152694;27;20074;-70
2022/07/02 11:28:26;;;;;;;;;;;;;;;;;;5152590;27;20035;-77
2022/07/02 11:30:58;;;;;;;4.80;1.75;;;;;;;;;;5152669;27;19934;-74
2022/07/02 11:33:24;;;;;;;6.63;1.50;;;;;;;;;;5152221;27;20039;-75
2022/07/02 11:35:53;;;;;;;4.53;1.55;;;;;;;;;;5149878;27;20043;-76
2022/07/02 11:38:19;;;;;;;4.90;1.45;;;;;;;;;;5151747;27;20099;-74
2022/07/02 11:40:46;;;;;;;3.55;1.30;;;;;;;;;;5133690;27;20182;-75
2022/07/02 11:43:12;;;;;;;;;;;;;;;;;;5152360;27;20482;-74
2022/07/02 11:45:44;;;;;;;6.85;1.73;;;;;;;;;;5131684;27;19935;-76
2022/07/02 11:48:23;;;;;;;5.32;1.60;;;;;;;;;;5151818;27;20156;-82
2022/07/02 11:50:56;;;;;;;4.80;1.63;;;;;;;;;;5132842;27;20112;-74
2022/07/02 11:53:23;;;;;;;8.38;1.90;;;;;;;;;;5150951;27;20055;-81
2022/07/02 11:55:49;;;;;;;7.97;1.70;;;;;;;;;;5144859;27;20031;-72
2022/07/02 11:58:15;;;;;;;;;;;;;;;;;;5125817;27;20034;-77
2022/07/02 12:00:41;;;;;;;9.00;1.45;;;;;;;;;;5125864;27;19915;-74
2022/07/02 12:03:07;;;;;;;;;;;;;;;;;;5145765;27;20114;-74
2022/07/02 12:05:33;;;;;;;9.52;1.85;;;;;;;;;;5122814;27;20455;-72
2022/07/02 12:07:59;;;;;;;4.10;1.50;;;;;;;;;;5143986;27;20031;-77
2022/07/02 12:10:25;;;;;;;;;;;;;;;;;;5142178;27;20043;-73
2022/07/02 12:12:51;;;;;;;5.50;1.50;;;;;;;;;;5146028;27;20334;-75
2022/07/02 12:15:17;;;;;;;;;;;;;;;;;;5143032;27;20050;-76
2022/07/02 12:17:49;;;;;;;6.32;1.98;;;;;;;;;;5124322;27;19934;-76
2022/07/02 12:20:18;;;;;;;4.30;1.50;;;;;;;;;;5145923;27;20042;-70
2022/07/02 12:22:51;;;;;;;9.90;1.70;;;;;;;;;;5125908;27;20083;-73
2022/07/02 12:25:17;;;;;;;5.03;1.55;;;;;;;;;;5144643;27;20377;-71
2022/07/02 12:27:43;;;;;;;6.13;1.60;;;;;;;;;;5144473;27;20231;-71
2022/07/02 12:30:09;;;;;;;;;;;;;;;;;;5145887;27;20034;-72
2022/07/02 12:32:38;;;;;;;6.55;1.70;;;;;;;;;;5126802;27;20009;-75
2022/07/02 12:35:07;;;;;;;7.32;1.73;;;;;;;;;;5144179;27;20042;-70
2022/07/02 12:37:37;;;;;;;8.35;1.67;;;;;;;;;;5145077;27;20162;-72
2022/07/02 12:40:09;;;;;;;3.95;1.58;;;;;;;;;;5144430;27;20099;-76
2022/07/02 12:42:55;;;;;;;4.88;1.63;;;;;;;;;;5142602;27;20188;-73
2022/07/02 12:45:22;;;;;;;3.97;1.50;;;;;;;;;;5111560;27;20125;-73
2022/07/02 12:47:59;;;;;;;6.10;1.48;;;;;;;;;;5113987;27;20039;-71
2022/07/02 12:50:26;;;;;;;5.55;1.58;;;;;;;;;;5141319;27;20050;-69
2022/07/02 12:52:53;;;;;;;5.93;1.60;;;;;;;;;;5124476;27;20050;-72
2022/07/02 12:55:39;;;;;;;6.70;1.50;;;;;;;;;;5143553;27;20252;-73
2022/07/02 12:58:07;;;;;;;4.00;1.60;;;;;;;;;;5140143;27;20166;-73
2022/07/02 13:00:34;;;;;;;6.60;1.70;;;;;;;;;;5145993;27;20167;-71
2022/07/02 13:03:01;;;;;;;7.35;1.75;;;;;;;;;;5143101;27;20039;-76
2022/07/02 13:05:28;;;;;;;7.60;1.65;;;;;;;;;;5120998;27;20042;-78
2022/07/02 13:07:54;;;;;;;4.90;1.38;;;;;;;;;;5147560;27;20469;-73
2022/07/02 13:10:20;;;;;;;;;;;;;;;;;;5149903;27;20031;-75
2022/07/02 13:12:46;;;;;;;5.13;1.60;;;;;;;;;;5149318;27;19930;-75
2022/07/02 13:15:12;;;;;;;;;;;;;;;;;;5125638;27;20458;-76
2022/07/02 13:17:38;;;;;;;6.32;1.70;;;;;;;;;;5141840;27;19922;-72
2022/07/02 13:20:04;;;;;;;;;;;;;;;;;;5142179;27;20043;-77
2022/07/02 13:22:30;;;;;;;5.28;1.38;;;;;;;;;;5150222;27;19921;-76
2022/07/02 13:24:57;;;;;;;6.03;1.65;;;;;;;;;;5150801;27;20126;-74
2022/07/02 13:27:23;;;;;;;4.07;1.60;;;;;;;;;;5150471;27;20043;-75
2022/07/02 13:29:50;;;;;;;3.97;1.60;;;;;;;;;;5151137;27;20126;-75
2022/07/02 13:32:16;;;;;;;5.15;1.40;;;;;;;;;;5138989;27;20035;-73
2022/07/02 13:34:42;;;;;;;4.15;1.52;;;;;;;;;;5150295;27;20141;-74
2022/07/02 13:37:08;;;;;;;7.80;1.90;;;;;;;;;;5131881;27;20424;-72
2022/07/02 13:39:34;;;;;;;;;;;;;;;;;;5149477;27;20376;-75
2022/07/02 13:42:01;;;;;;;7.13;1.50;;;;;;;;;;5151014;27;19922;-72
2022/07/02 13:44:27;;;;;;;5.93;1.55;;;;;;;;;;5149963;27;20057;-73
2022/07/02 13:46:53;;;;;;;4.20;1.45;;;;;;;;;;5138068;27;20043;-73
2022/07/02 13:49:19;;;;;;;6.03;1.50;;;;;;;;;;5149092;27;20041;-74
2022/07/02 13:51:45;;;;;;;;;;;;;;;;;;5144285;27;20055;-83
2022/07/02 13:54:11;;;;;;;7.13;1.60;;;;;;;;;;5147391;27;19919;-79
2022/07/02 13:56:37;;;;;;;;;;;;;;;;;;5132354;27;20039;-74
2022/07/02 13:59:08;;;;;;;5.00;1.40;;;;;;;;;;5143316;27;19925;-72
2022/07/02 14:01:34;;;;;;;6.13;1.52;;;;;;;;;;5150293;27;20046;-76
2022/07/02 14:04:00;;;;;;;;;;;;;;;;;;5149035;27;20039;-72
2022/07/02 14:06:27;;;;;;;8.80;2.08;;;;;;;;;;5150616;27;19915;-78
2022/07/02 14:08:53;;;;;;;5.50;1.80;;;;;;;;;;5147741;27;20051;-79
2022/07/02 14:11:19;;;;;;;;;;;;;;;;;;5132222;27;20034;-81
2022/07/02 14:13:45;;;;;;;6.68;1.92;;;;;;;;;;5149870;27;20013;-73
2022/07/02 14:16:11;;;;;;;8.75;2.08;;;;;;;;;;5150603;27;20421;-73
2022/07/02 14:18:38;;;;;;;6.57;1.92;;;;;;;;;;5148202;27;20486;-71
2022/07/02 14:21:04;;;;;;;4.53;1.55;;;;;;;;;;5130733;27;20174;-76
2022/07/02 14:23:31;;;;;;;4.72;1.45;;;;;;;;;;5147826;27;20083;-79
2022/07/02 14:25:57;;;;;;;6.22;1.63;;;;;;;;;;5150722;27;20330;-71
2022/07/02 14:28:24;;;;;;;5.57;1.50;;;;;;;;;;5150286;27;20039;-72
2022/07/02 14:30:50;;;;;;;4.55;1.50;;;;;;;;;;5149867;27;20042;-77
2022/07/02 14:33:17;;;;;;;6.28;1.80;;;;;;;;;;5147969;27;20042;-74
2022/07/02 14:35:47;;;;;;;3.88;1.52;;;;;;;;;;5150417;27;20046;-76
2022/07/02 14:38:13;;;;;;;8.73;1.90;;;;;;;;;;5129145;27;20054;-74
2022/07/02 14:40:40;;;;;;;7.15;1.90;;;;;;;;;;5131571;27;20042;-72
2022/07/02 14:43:06;;;;;;;6.22;1.90;;;;;;;;;;5114548;27;20103;-73
2022/07/02 14:45:32;;;;;;;7.70;1.65;;;;;;;;;;5150029;27;20419;-74
2022/07/02 14:47:58;;;;;;;3.78;1.70;;;;;;;;;;5146642;27;20050;-72
2022/07/02 14:50:25;;;;;;;5.65;1.70;;;;;;;;;;5149627;27;20057;-73
2022/07/02 14:52:51;;;;;;;7.93;1.60;;;;;;;;;;5130971;27;20382;-70
2022/07/02 14:55:17;;;;;;;;;;;;;;;;;;5149909;27;20039;-71
2022/07/02 14:57:43;;;;;;;5.55;1.80;;;;;;;;;;5131575;27;20479;-71